Time;durP1;ratioP1;P1;durP2;ratioP2;P2;SDS_P1;SDS_P2;PMS_P1;PMS_P2;Temp;Humidity;BMP_temperature;BMP_pressure;BME280_temperature;BME280_humidity;BME280_pressure;Samples;Min_cycle;Max_cycle;Signal;HPM_P1;HPM_P2
2023/06/19 00:00:39;;;;;;;3.67;3.23;;;19.10;99.90;;;;;;5048881;28;20228;-60
2023/06/19 00:03:09;;;;;;;4.00;3.70;;;19.10;99.90;;;;;;5038995;28;20193;-61
2023/06/19 00:05:37;;;;;;;4.20;3.80;;;19.10;99.90;;;;;;5046462;28;20213;-60
2023/06/19 00:08:06;;;;;;;3.87;3.67;;;19.20;99.90;;;;;;5049105;28;20217;-60
2023/06/19 00:10:35;;;;;;;4.83;3.93;;;19.20;99.90;;;;;;5052911;28;20659;-61
2023/06/19 00:13:03;;;;;;;3.60;3.33;;;19.20;99.90;;;;;;5060411;28;20224;-60
2023/06/19 00:15:31;;;;;;;4.03;3.53;;;19.30;99.90;;;;;;5046717;28;20220;-60
2023/06/19 00:18:01;;;;;;;4.80;3.97;;;19.20;99.90;;;;;;5053516;28;20203;-61
2023/06/19 00:20:30;;;;;;;5.00;4.10;;;19.20;99.90;;;;;;5048159;28;20228;-60
2023/06/19 00:22:58;;;;;;;4.67;4.20;;;19.30;99.90;;;;;;5041720;28;20232;-61
2023/06/19 00:25:26;;;;;;;4.97;4.00;;;19.30;99.90;;;;;;5046599;28;20230;-61
2023/06/19 00:27:54;;;;;;;5.87;4.50;;;19.30;99.90;;;;;;5058268;28;20215;-60
2023/06/19 00:30:23;;;;;;;7.27;4.40;;;19.30;99.90;;;;;;5048800;28;20204;-61
2023/06/19 00:32:53;;;;;;;11.40;4.27;;;19.30;99.90;;;;;;5058115;28;20279;-61
2023/06/19 00:35:22;;;;;;;5.37;4.30;;;19.20;99.90;;;;;;5047051;28;20319;-61
2023/06/19 00:37:51;;;;;;;6.97;4.17;;;19.30;99.90;;;;;;5042907;28;20726;-61
2023/06/19 00:40:27;;;;;;;4.93;4.43;;;19.30;99.90;;;;;;5051000;28;21006;-61
2023/06/19 00:42:55;;;;;;;6.33;4.20;;;19.30;99.90;;;;;;5049576;28;20216;-61
2023/06/19 00:45:25;;;;;;;5.87;4.83;;;19.30;99.90;;;;;;5085056;28;20203;-60
2023/06/19 00:47:54;;;;;;;4.50;4.10;;;19.30;99.90;;;;;;5085963;28;20687;-61
2023/06/19 00:50:24;;;;;;;6.43;4.87;;;19.30;99.90;;;;;;5062097;28;20722;-61
2023/06/19 00:52:53;;;;;;;6.90;4.33;;;19.30;99.90;;;;;;5085940;28;20232;-61
2023/06/19 00:55:22;;;;;;;4.97;4.40;;;19.30;99.90;;;;;;5066819;28;20227;-61
2023/06/19 00:57:53;;;;;;;5.57;5.07;;;19.30;99.90;;;;;;5087349;28;20550;-61
2023/06/19 01:00:21;;;;;;;8.30;4.80;;;19.30;99.90;;;;;;5087021;28;20199;-61
2023/06/19 01:02:50;;;;;;;8.27;4.83;;;19.30;99.90;;;;;;5083293;28;20576;-61
2023/06/19 01:05:19;;;;;;;5.80;5.27;;;19.30;99.90;;;;;;5079441;28;20698;-61
2023/06/19 01:08:01;;;;;;;6.07;4.83;;;19.30;99.90;;;;;;5086696;28;20708;-61
2023/06/19 01:10:33;;;;;;;6.67;5.07;;;19.30;99.90;;;;;;5087444;28;20222;-61
2023/06/19 01:13:07;;;;;;;6.80;5.27;;;19.30;99.90;;;;;;5088708;28;20211;-61
2023/06/19 01:15:36;;;;;;;6.80;5.43;;;19.30;99.90;;;;;;5086573;28;20741;-61
2023/06/19 01:18:05;;;;;;;7.63;5.40;;;19.30;99.90;;;;;;5088330;28;20187;-61
2023/06/19 01:20:34;;;;;;;5.57;5.10;;;19.30;99.90;;;;;;5085884;28;20219;-61
2023/06/19 01:23:09;;;;;;;5.47;5.07;;;19.30;99.90;;;;;;5091937;28;20700;-61
2023/06/19 01:25:37;;;;;;;7.83;5.27;;;19.40;99.90;;;;;;5085252;28;20211;-61
2023/06/19 01:28:09;;;;;;;6.87;5.63;;;19.40;99.90;;;;;;5081461;28;20215;-61
2023/06/19 01:30:38;;;;;;;5.63;5.03;;;19.30;99.90;;;;;;5080463;28;20717;-61
2023/06/19 01:33:13;;;;;;;10.43;5.83;;;19.30;99.90;;;;;;5088554;28;20198;-61
2023/06/19 01:35:44;;;;;;;7.77;5.73;;;19.30;99.90;;;;;;5080529;28;20301;-61
2023/06/19 01:38:15;;;;;;;8.97;6.20;;;19.30;99.90;;;;;;5066729;28;20216;-60
2023/06/19 01:40:44;;;;;;;6.23;5.63;;;19.40;99.90;;;;;;5084006;28;20223;-61
2023/06/19 01:43:12;;;;;;;9.73;6.83;;;19.40;99.90;;;;;;5082965;28;20293;-61
2023/06/19 01:45:41;;;;;;;7.70;6.53;;;19.40;99.90;;;;;;5086399;28;20233;-61
2023/06/19 01:48:10;;;;;;;8.57;7.23;;;19.30;99.90;;;;;;5085056;28;20200;-60
2023/06/19 01:50:38;;;;;;;8.47;6.60;;;19.30;99.90;;;;;;5084643;28;20187;-61
2023/06/19 01:53:06;;;;;;;7.87;7.07;;;19.30;99.90;;;;;;5087529;28;20238;-61
2023/06/19 01:55:37;;;;;;;8.60;6.90;;;19.30;99.90;;;;;;5080174;28;20221;-60
2023/06/19 01:58:05;;;;;;;9.23;7.13;;;19.30;99.90;;;;;;5086202;28;20937;-61
2023/06/19 02:00:35;;;;;;;9.17;7.10;;;19.30;99.90;;;;;;5090004;28;20219;-61
2023/06/19 02:03:03;;;;;;;11.93;7.80;;;19.30;99.90;;;;;;5086737;28;20576;-61
2023/06/19 02:05:32;;;;;;;9.67;7.00;;;19.40;99.90;;;;;;5083505;28;20914;-61
2023/06/19 02:08:01;;;;;;;8.77;7.90;;;19.40;99.90;;;;;;5087708;28;20592;-61
2023/06/19 02:10:29;;;;;;;7.93;7.03;;;19.40;99.90;;;;;;5085516;28;20700;-61
2023/06/19 02:12:59;;;;;;;11.17;7.63;;;19.40;99.90;;;;;;5090628;28;20237;-61
2023/06/19 02:15:27;;;;;;;7.93;7.07;;;19.40;99.90;;;;;;5082378;28;20882;-61
2023/06/19 02:17:57;;;;;;;14.43;7.73;;;19.40;99.90;;;;;;5090184;28;20187;-61
2023/06/19 02:20:25;;;;;;;7.50;6.60;;;19.30;99.90;;;;;;5085795;28;20276;-61
2023/06/19 02:22:54;;;;;;;10.47;6.60;;;19.30;99.90;;;;;;5088686;28;20225;-61
2023/06/19 02:25:22;;;;;;;8.60;6.60;;;19.40;99.90;;;;;;5087137;28;20585;-61
2023/06/19 02:27:50;;;;;;;6.53;5.93;;;19.30;99.90;;;;;;5090277;28;20701;-61
2023/06/19 02:30:20;;;;;;;7.03;6.27;;;19.30;99.90;;;;;;5062515;28;20194;-60
2023/06/19 02:32:49;;;;;;;8.70;5.63;;;19.50;99.90;;;;;;5089083;28;20522;-61
2023/06/19 02:35:18;;;;;;;6.37;5.77;;;19.40;99.90;;;;;;5091241;28;20261;-61
2023/06/19 02:37:47;;;;;;;6.43;5.70;;;19.50;99.90;;;;;;5090827;28;20219;-61
2023/06/19 02:40:15;;;;;;;8.20;5.97;;;19.50;99.90;;;;;;5087787;28;20589;-60
2023/06/19 02:42:43;;;;;;;7.63;5.50;;;19.50;99.90;;;;;;5087716;28;20219;-60
2023/06/19 02:45:12;;;;;;;6.20;5.60;;;19.40;99.90;;;;;;5088762;28;20187;-60
2023/06/19 02:47:41;;;;;;;5.70;5.20;;;19.40;99.90;;;;;;5088087;28;20279;-61
2023/06/19 02:50:10;;;;;;;5.97;5.47;;;19.40;99.90;;;;;;5086991;28;20272;-61
2023/06/19 02:52:39;;;;;;;6.47;5.40;;;19.40;99.90;;;;;;5090048;28;20222;-61
2023/06/19 02:55:07;;;;;;;7.43;5.93;;;19.30;99.90;;;;;;5088873;28;20223;-61
2023/06/19 02:57:36;;;;;;;6.57;5.90;;;19.30;99.90;;;;;;5086140;28;20223;-61
2023/06/19 03:00:06;;;;;;;6.67;5.50;;;19.30;99.90;;;;;;5085287;28;20211;-61
2023/06/19 03:02:35;;;;;;;5.93;5.40;;;19.40;99.90;;;;;;5069908;28;20226;-61
2023/06/19 03:05:05;;;;;;;5.67;5.27;;;19.40;99.90;;;;;;5085190;28;20223;-61
2023/06/19 03:07:34;;;;;;;5.97;5.20;;;19.30;99.90;;;;;;5092047;28;20223;-60
2023/06/19 03:10:02;;;;;;;5.57;5.07;;;19.30;99.90;;;;;;5087455;28;20208;-60
2023/06/19 03:12:30;;;;;;;6.53;5.93;;;19.30;99.90;;;;;;5078717;28;20226;-60
2023/06/19 03:14:59;;;;;;;5.93;5.30;;;19.20;99.90;;;;;;5088601;28;20230;-61
2023/06/19 03:17:27;;;;;;;6.27;5.50;;;19.10;99.90;;;;;;5087019;28;20230;-61
2023/06/19 03:19:56;;;;;;;6.50;5.90;;;19.10;99.90;;;;;;5088888;28;20219;-61
2023/06/19 03:22:26;;;;;;;6.23;5.63;;;19.10;99.90;;;;;;5091724;28;20219;-61
2023/06/19 03:24:54;;;;;;;6.47;5.77;;;19.00;99.90;;;;;;5087627;28;20216;-61
2023/06/19 03:27:22;;;;;;;5.83;5.33;;;19.00;99.90;;;;;;5092042;28;20199;-60
2023/06/19 03:29:51;;;;;;;7.23;5.80;;;19.00;99.90;;;;;;5094305;28;20201;-61
2023/06/19 03:32:19;;;;;;;6.23;5.73;;;18.90;99.90;;;;;;5092501;28;20226;-61
2023/06/19 03:34:48;;;;;;;7.37;5.70;;;18.90;99.90;;;;;;5077884;28;20227;-61
2023/06/19 03:37:17;;;;;;;12.87;7.10;;;18.90;99.90;;;;;;5062133;28;20721;-60
2023/06/19 03:39:46;;;;;;;6.77;6.20;;;18.90;99.90;;;;;;5098183;28;20238;-61
2023/06/19 03:42:15;;;;;;;8.03;6.53;;;18.80;99.90;;;;;;5088991;28;20190;-60
2023/06/19 03:44:43;;;;;;;7.60;6.90;;;18.80;99.90;;;;;;5088565;28;20245;-61
2023/06/19 03:47:14;;;;;;;8.27;7.47;;;18.70;99.90;;;;;;5074132;28;20227;-61
2023/06/19 03:49:42;;;;;;;7.30;6.63;;;18.70;99.90;;;;;;5085201;28;20223;-61
2023/06/19 03:52:11;;;;;;;7.90;7.10;;;18.70;99.90;;;;;;5093043;28;20298;-61
2023/06/19 03:54:39;;;;;;;9.77;7.53;;;18.60;99.90;;;;;;5089695;28;20247;-61
2023/06/19 03:57:09;;;;;;;8.43;7.63;;;18.60;99.90;;;;;;5089745;28;20931;-61
2023/06/19 03:59:37;;;;;;;11.07;7.43;;;18.60;99.90;;;;;;5088705;28;20286;-61
2023/06/19 04:02:06;;;;;;;12.67;7.73;;;18.50;99.90;;;;;;5088579;28;20220;-61
2023/06/19 04:04:34;;;;;;;8.57;7.67;;;18.40;99.90;;;;;;5088404;28;20252;-61
2023/06/19 04:07:03;;;;;;;9.77;8.47;;;18.40;99.90;;;;;;5086742;28;20667;-61
2023/06/19 04:09:31;;;;;;;8.60;7.70;;;18.30;99.90;;;;;;5077185;28;20227;-61
2023/06/19 04:11:59;;;;;;;11.73;9.00;;;18.30;99.90;;;;;;5086658;28;20679;-60
2023/06/19 04:14:29;;;;;;;16.40;9.80;;;18.30;99.90;;;;;;5086306;28;20566;-60
2023/06/19 04:16:57;;;;;;;16.17;10.03;;;18.30;99.90;;;;;;5085855;28;20218;-61
2023/06/19 04:19:26;;;;;;;10.87;9.77;;;18.20;99.90;;;;;;5089871;28;20237;-61
2023/06/19 04:21:55;;;;;;;11.97;10.20;;;18.10;99.90;;;;;;5072120;28;20219;-61
2023/06/19 04:24:23;;;;;;;14.27;9.83;;;18.10;99.90;;;;;;5068823;28;20530;-61
2023/06/19 04:26:52;;;;;;;13.53;10.40;;;18.10;99.90;;;;;;5089686;28;20192;-61
2023/06/19 04:29:21;;;;;;;12.97;10.60;;;18.10;99.90;;;;;;5091224;28;20226;-60
2023/06/19 04:31:52;;;;;;;15.33;12.00;;;18.10;99.90;;;;;;5089772;28;20261;-60
2023/06/19 04:34:20;;;;;;;16.40;11.73;;;18.00;99.90;;;;;;5082148;28;20215;-61
2023/06/19 04:36:49;;;;;;;14.73;12.33;;;18.00;99.90;;;;;;5070987;28;20211;-61
2023/06/19 04:39:17;;;;;;;15.53;12.50;;;18.00;99.90;;;;;;5082461;28;22183;-61
2023/06/19 04:41:46;;;;;;;18.33;12.03;;;17.90;99.90;;;;;;5087659;28;20686;-61
2023/06/19 04:44:14;;;;;;;17.77;11.97;;;17.90;99.90;;;;;;5087070;28;20231;-61
2023/06/19 04:46:43;;;;;;;17.63;11.50;;;17.90;99.90;;;;;;5069144;28;20215;-61
2023/06/19 04:49:13;;;;;;;14.67;12.00;;;17.90;99.90;;;;;;5086988;28;20681;-61
2023/06/19 04:51:42;;;;;;;16.17;12.30;;;18.00;99.90;;;;;;5080537;28;20688;-61
2023/06/19 04:54:10;;;;;;;15.27;12.17;;;17.90;99.90;;;;;;5088515;28;20222;-60
2023/06/19 04:56:38;;;;;;;17.93;13.20;;;18.00;99.90;;;;;;5088742;28;20213;-61
2023/06/19 04:59:07;;;;;;;15.60;13.17;;;18.00;99.90;;;;;;5086361;28;20728;-61
2023/06/19 05:01:35;;;;;;;16.00;11.87;;;17.90;99.90;;;;;;5087823;28;20222;-62
2023/06/19 05:04:04;;;;;;;20.07;13.60;;;17.90;99.90;;;;;;5087078;28;20242;-61
2023/06/19 05:06:34;;;;;;;19.40;14.50;;;17.90;99.90;;;;;;5085606;28;20233;-61
2023/06/19 05:09:02;;;;;;;16.40;12.97;;;18.00;99.90;;;;;;5088249;28;20601;-61
2023/06/19 05:11:30;;;;;;;19.83;13.67;;;18.00;99.90;;;;;;5080071;28;20226;-61
2023/06/19 05:13:59;;;;;;;16.83;13.80;;;18.00;99.90;;;;;;5063802;28;20227;-61
2023/06/19 05:16:27;;;;;;;19.07;13.77;;;18.00;99.90;;;;;;5071997;28;20594;-61
2023/06/19 05:18:56;;;;;;;19.50;14.30;;;17.90;99.90;;;;;;5083346;28;20219;-61
2023/06/19 05:21:24;;;;;;;18.50;13.70;;;17.90;99.90;;;;;;5089579;28;20211;-60
2023/06/19 05:23:54;;;;;;;17.70;14.00;;;18.00;99.90;;;;;;5080186;28;20560;-61
2023/06/19 05:26:23;;;;;;;18.43;14.40;;;18.00;99.90;;;;;;5092713;28;20235;-61
2023/06/19 05:28:51;;;;;;;19.77;14.23;;;18.00;99.90;;;;;;5086259;28;20212;-61
2023/06/19 05:31:19;;;;;;;16.43;13.50;;;18.00;99.90;;;;;;5088106;28;20597;-61
2023/06/19 05:33:48;;;;;;;23.03;14.63;;;17.90;99.90;;;;;;5090780;28;20797;-61
2023/06/19 05:36:16;;;;;;;20.27;14.40;;;18.00;99.90;;;;;;5086275;28;21012;-62
2023/06/19 05:38:45;;;;;;;21.13;15.27;;;18.00;99.90;;;;;;5089729;28;20286;-61
2023/06/19 05:41:15;;;;;;;23.87;15.47;;;18.00;99.90;;;;;;5085046;28;20211;-61
2023/06/19 05:43:44;;;;;;;20.17;14.90;;;18.10;99.90;;;;;;5087107;28;20261;-61
2023/06/19 05:46:12;;;;;;;18.27;14.53;;;18.20;99.90;;;;;;5081269;28;20222;-61
2023/06/19 05:48:41;;;;;;;20.57;14.53;;;18.20;99.90;;;;;;5084188;28;20242;-62
2023/06/19 05:51:09;;;;;;;21.53;15.43;;;18.30;99.90;;;;;;5089749;28;20183;-57
2023/06/19 05:53:38;;;;;;;23.20;14.77;;;18.20;99.90;;;;;;5088587;28;20215;-61
2023/06/19 05:56:07;;;;;;;18.77;15.07;;;18.20;99.90;;;;;;5090106;28;20233;-61
2023/06/19 05:58:37;;;;;;;22.50;15.33;;;18.20;99.90;;;;;;5080466;28;20222;-61
2023/06/19 06:01:06;;;;;;;18.77;14.40;;;18.20;99.90;;;;;;5082112;28;20219;-61
2023/06/19 06:03:35;;;;;;;19.07;14.83;;;18.30;99.90;;;;;;5082757;28;20318;-61
2023/06/19 06:06:05;;;;;;;23.57;14.93;;;18.30;99.90;;;;;;5084815;28;20188;-61
2023/06/19 06:08:33;;;;;;;20.67;15.20;;;18.30;99.90;;;;;;5067081;28;20251;-61
2023/06/19 06:11:02;;;;;;;19.20;14.87;;;18.30;99.90;;;;;;5077616;28;20215;-62
2023/06/19 06:13:30;;;;;;;19.47;14.10;;;18.20;99.90;;;;;;5064657;28;20221;-61
2023/06/19 06:16:00;;;;;;;20.23;14.70;;;18.30;99.90;;;;;;5085222;28;20223;-62
2023/06/19 06:18:28;;;;;;;20.33;14.30;;;18.30;99.90;;;;;;5077615;28;20195;-62
2023/06/19 06:20:58;;;;;;;20.30;14.33;;;18.40;99.90;;;;;;5089047;28;20215;-62
2023/06/19 06:23:27;;;;;;;21.17;14.90;;;18.50;99.90;;;;;;5081916;28;20705;-61
2023/06/19 06:26:01;;;;;;;19.57;14.23;;;18.60;99.90;;;;;;5077326;28;20226;-62
2023/06/19 06:28:29;;;;;;;17.97;13.40;;;18.60;99.90;;;;;;5062796;28;20222;-62
2023/06/19 06:30:59;;;;;;;19.23;14.37;;;18.60;99.90;;;;;;5082000;28;20689;-61
2023/06/19 06:33:27;;;;;;;19.67;13.63;;;18.70;99.90;;;;;;5083219;28;20199;-61
2023/06/19 06:35:56;;;;;;;20.60;13.83;;;18.80;99.90;;;;;;5085948;28;20199;-61
2023/06/19 06:38:24;;;;;;;19.83;13.57;;;18.80;99.90;;;;;;5085275;28;20215;-61
2023/06/19 06:40:53;;;;;;;19.83;13.47;;;18.90;99.90;;;;;;5084855;28;20231;-61
2023/06/19 06:43:21;;;;;;;24.83;14.57;;;19.00;99.90;;;;;;5089455;28;20239;-61
2023/06/19 06:45:50;;;;;;;20.87;13.30;;;19.10;99.90;;;;;;5093984;28;20724;-62
2023/06/19 06:48:19;;;;;;;17.77;13.33;;;19.10;99.90;;;;;;5091958;28;20652;-61
2023/06/19 06:50:48;;;;;;;17.70;14.03;;;19.20;99.90;;;;;;5091635;28;20199;-61
2023/06/19 06:53:16;;;;;;;20.53;13.33;;;19.30;99.90;;;;;;5090883;28;20597;-61
2023/06/19 06:55:44;;;;;;;17.00;13.33;;;19.40;99.90;;;;;;5089172;28;20223;-61
2023/06/19 06:58:14;;;;;;;16.23;12.53;;;19.40;99.90;;;;;;5092102;28;20219;-61
2023/06/19 07:00:42;;;;;;;17.10;13.07;;;19.50;99.90;;;;;;5089987;28;20227;-61
2023/06/19 07:03:10;;;;;;;16.93;12.93;;;19.50;99.90;;;;;;5095176;28;20234;-61
2023/06/19 07:05:41;;;;;;;18.30;13.73;;;19.70;99.90;;;;;;5090747;28;20257;-61
2023/06/19 07:08:10;;;;;;;17.23;12.67;;;19.60;99.90;;;;;;5091893;28;20226;-61
2023/06/19 07:10:38;;;;;;;22.67;13.37;;;19.70;99.90;;;;;;5094535;28;20228;-61
2023/06/19 07:13:06;;;;;;;16.33;12.47;;;19.60;99.90;;;;;;5096467;28;20215;-61
2023/06/19 07:15:35;;;;;;;16.63;13.47;;;19.60;99.90;;;;;;5093147;28;20311;-61
2023/06/19 07:18:03;;;;;;;17.90;13.50;;;19.60;99.90;;;;;;5091535;28;20203;-61
2023/06/19 07:20:31;;;;;;;18.10;12.67;;;19.50;99.90;;;;;;5092988;28;20757;-61
2023/06/19 07:23:01;;;;;;;14.77;12.07;;;19.50;99.90;;;;;;5069219;28;20228;-60
2023/06/19 07:25:30;;;;;;;15.13;11.90;;;19.60;99.90;;;;;;5095169;28;20586;-61
2023/06/19 07:27:58;;;;;;;16.80;12.33;;;19.70;99.90;;;;;;5092727;28;20223;-61
2023/06/19 07:30:26;;;;;;;17.37;11.57;;;19.70;99.90;;;;;;5094233;28;20200;-60
2023/06/19 07:32:55;;;;;;;17.70;10.50;;;19.90;99.90;;;;;;5088089;28;20211;-61
2023/06/19 07:35:23;;;;;;;15.67;11.47;;;19.80;99.90;;;;;;5093188;28;20219;-61
2023/06/19 07:37:52;;;;;;;13.23;10.37;;;19.90;99.90;;;;;;5085063;28;20226;-61
2023/06/19 07:40:21;;;;;;;13.67;10.63;;;20.00;99.90;;;;;;5071473;28;20234;-61
2023/06/19 07:42:50;;;;;;;12.90;9.93;;;20.20;99.90;;;;;;5092014;28;20719;-61
2023/06/19 07:45:19;;;;;;;14.83;10.33;;;20.20;99.90;;;;;;5076422;28;20192;-61
2023/06/19 07:47:55;;;;;;;13.63;10.53;;;20.20;99.90;;;;;;5094965;28;20202;-62
2023/06/19 07:50:24;;;;;;;13.50;10.53;;;20.30;99.90;;;;;;5083935;28;20720;-61
2023/06/19 07:52:55;;;;;;;16.83;9.87;;;20.40;99.90;;;;;;5079360;28;20215;-61
2023/06/19 07:55:25;;;;;;;14.00;11.33;;;20.30;99.90;;;;;;5105066;28;20672;-61
2023/06/19 07:57:56;;;;;;;12.47;9.53;;;20.30;99.90;;;;;;5093256;28;20254;-61
2023/06/19 08:00:24;;;;;;;13.93;9.63;;;20.30;99.90;;;;;;5099588;28;20194;-61
2023/06/19 08:02:53;;;;;;;14.90;10.17;;;20.20;99.90;;;;;;5093941;28;20203;-61
2023/06/19 08:05:22;;;;;;;12.33;10.07;;;20.20;99.90;;;;;;5094044;28;20311;-61
2023/06/19 08:07:51;;;;;;;12.00;10.00;;;20.30;99.90;;;;;;5092296;28;20222;-61
2023/06/19 08:10:19;;;;;;;16.30;10.47;;;20.40;99.90;;;;;;5093546;28;20227;-61
2023/06/19 08:12:49;;;;;;;14.90;9.27;;;20.60;99.90;;;;;;5093908;28;20211;-61
2023/06/19 08:15:20;;;;;;;13.97;10.70;;;20.70;99.90;;;;;;5093167;28;20248;-61
2023/06/19 08:17:49;;;;;;;14.43;10.40;;;20.90;99.90;;;;;;5093801;28;20192;-61
2023/06/19 08:20:17;;;;;;;11.70;9.87;;;21.00;99.90;;;;;;5080952;28;20211;-61
2023/06/19 08:22:45;;;;;;;14.07;9.53;;;21.20;99.90;;;;;;5091866;28;20215;-61
2023/06/19 08:25:14;;;;;;;14.57;9.57;;;21.40;99.90;;;;;;5090714;28;20265;-61
2023/06/19 08:27:45;;;;;;;15.23;10.70;;;21.50;99.90;;;;;;5087547;28;20227;-61
2023/06/19 08:30:14;;;;;;;11.93;9.73;;;21.40;99.90;;;;;;5087086;28;20197;-61
2023/06/19 08:32:45;;;;;;;11.60;9.57;;;21.30;99.90;;;;;;5096055;28;20199;-61
2023/06/19 08:35:13;;;;;;;11.80;9.93;;;21.30;99.90;;;;;;5088121;28;20223;-61
2023/06/19 08:37:41;;;;;;;11.33;9.10;;;21.30;99.90;;;;;;5092866;28;20220;-61
2023/06/19 08:40:11;;;;;;;11.37;9.47;;;21.40;99.90;;;;;;5093176;28;20223;-61
2023/06/19 08:42:39;;;;;;;12.27;9.10;;;21.50;99.90;;;;;;5089162;28;20246;-61
2023/06/19 08:45:10;;;;;;;10.67;8.80;;;21.70;99.90;;;;;;5074983;28;20265;-61
2023/06/19 08:47:39;;;;;;;12.40;9.00;;;21.90;99.90;;;;;;5074561;28;20215;-61
2023/06/19 08:50:09;;;;;;;12.03;9.10;;;21.90;99.90;;;;;;5071461;28;20233;-61
2023/06/19 08:52:37;;;;;;;13.90;9.67;;;21.90;99.90;;;;;;5088120;28;20255;-61
2023/06/19 08:55:07;;;;;;;13.57;9.37;;;22.00;99.90;;;;;;5089146;28;20220;-61
2023/06/19 08:57:36;;;;;;;13.00;10.33;;;22.00;99.90;;;;;;5087255;28;20220;-61
2023/06/19 09:00:06;;;;;;;13.57;10.30;;;22.10;99.90;;;;;;5087161;28;20195;-61
2023/06/19 09:02:41;;;;;;;15.13;10.97;;;22.30;99.90;;;;;;5091021;28;20216;-61
2023/06/19 09:05:13;;;;;;;14.17;10.77;;;22.50;99.90;;;;;;5087148;28;20284;-61
2023/06/19 09:07:42;;;;;;;13.23;11.20;;;22.60;99.90;;;;;;5088270;28;20226;-61
2023/06/19 09:10:18;;;;;;;14.77;9.17;;;22.70;99.90;;;;;;5089727;28;20221;-61
2023/06/19 09:12:58;;;;;;;13.77;10.17;;;22.90;99.90;;;;;;5092014;28;20686;-61
2023/06/19 09:15:30;;;;;;;14.67;11.00;;;23.00;99.90;;;;;;5095682;28;20546;-61
2023/06/19 09:18:04;;;;;;;13.70;10.83;;;23.10;99.90;;;;;;5087793;28;20197;-61
2023/06/19 09:20:34;;;;;;;20.83;10.87;;;23.30;99.90;;;;;;5092305;28;20317;-61
2023/06/19 09:23:02;;;;;;;13.00;10.57;;;23.40;99.90;;;;;;5095338;28;20651;-61
2023/06/19 09:25:30;;;;;;;11.03;9.40;;;23.60;99.90;;;;;;5092728;28;20234;-61
2023/06/19 09:27:59;;;;;;;10.00;8.67;;;23.70;99.90;;;;;;5093113;28;20222;-61
2023/06/19 09:30:27;;;;;;;11.97;8.87;;;23.80;99.90;;;;;;5092945;28;20197;-61
2023/06/19 09:32:55;;;;;;;11.20;8.53;;;23.80;99.90;;;;;;5090663;28;20216;-61
2023/06/19 09:35:25;;;;;;;10.67;9.00;;;23.80;99.90;;;;;;5088344;28;20227;-61
2023/06/19 09:37:55;;;;;;;10.53;8.37;;;23.80;99.90;;;;;;5081836;28;21080;-62
2023/06/19 09:40:24;;;;;;;11.50;8.57;;;24.00;99.90;;;;;;5086089;28;20219;-61
2023/06/19 09:42:56;;;;;;;11.17;8.60;;;23.80;99.90;;;;;;5093040;28;20233;-61
2023/06/19 09:45:27;;;;;;;10.40;9.17;;;23.90;99.90;;;;;;5092128;28;20211;-61
2023/06/19 09:47:55;;;;;;;11.13;8.27;;;24.10;99.90;;;;;;5090740;28;20190;-61
2023/06/19 09:50:29;;;;;;;11.83;8.70;;;24.10;99.90;;;;;;5092929;28;20239;-62
2023/06/19 09:52:58;;;;;;;12.30;8.67;;;24.20;99.90;;;;;;5092740;28;20219;-61
2023/06/19 09:55:30;;;;;;;8.40;7.50;;;24.10;99.90;;;;;;5087925;28;20230;-61
2023/06/19 09:58:19;;;;;;;10.33;7.93;;;23.90;99.90;;;;;;5091545;28;20268;-61
2023/06/19 10:00:50;;;;;;;11.23;7.80;;;23.80;99.90;;;;;;5087195;28;20315;-63
2023/06/19 10:03:19;;;;;;;10.10;8.13;;;23.60;99.90;;;;;;5086549;28;20198;-62
2023/06/19 10:05:59;;;;;;;13.53;7.80;;;23.50;99.90;;;;;;5073352;28;20195;-62
2023/06/19 10:08:30;;;;;;;10.43;7.67;;;23.80;99.90;;;;;;5086239;28;20207;-63
2023/06/19 10:10:59;;;;;;;9.27;7.53;;;24.10;99.90;;;;;;5086882;28;20215;-63
2023/06/19 10:13:34;;;;;;;8.80;7.20;;;24.50;99.90;;;;;;5087689;28;20350;-63
2023/06/19 10:16:03;;;;;;;10.00;7.73;;;24.90;99.90;;;;;;5086070;28;20244;-63
2023/06/19 10:18:33;;;;;;;9.17;8.07;;;25.10;99.90;;;;;;5085400;28;20230;-62
2023/06/19 10:21:03;;;;;;;11.07;8.07;;;25.00;99.90;;;;;;5094162;28;20283;-63
2023/06/19 10:23:37;;;;;;;15.47;8.43;;;24.80;99.90;;;;;;5086586;28;20215;-63
2023/06/19 10:26:08;;;;;;;11.20;8.90;;;24.70;99.90;;;;;;5069073;28;20231;-63
2023/06/19 10:28:36;;;;;;;15.60;9.57;;;24.40;99.90;;;;;;5093536;28;20217;-62
2023/06/19 10:31:07;;;;;;;12.27;10.13;;;24.20;99.90;;;;;;5080714;28;20212;-63
2023/06/19 10:33:40;;;;;;;14.40;10.93;;;24.40;99.90;;;;;;5090248;28;20261;-63
2023/06/19 10:36:17;;;;;;;15.33;11.07;;;24.70;99.90;;;;;;5088443;28;20191;-63
2023/06/19 10:38:47;;;;;;;13.57;11.13;;;25.00;99.90;;;;;;5078295;28;20215;-63
2023/06/19 10:41:16;;;;;;;11.67;9.00;;;25.30;99.90;;;;;;5087608;28;20225;-63
2023/06/19 10:43:54;;;;;;;12.50;10.07;;;25.50;99.90;;;;;;5086760;28;20743;-63
2023/06/19 10:46:24;;;;;;;16.07;11.57;;;25.70;99.90;;;;;;5086787;28;20219;-63
2023/06/19 10:48:56;;;;;;;13.53;10.80;;;26.00;99.90;;;;;;5090746;28;20211;-62
2023/06/19 10:51:27;;;;;;;13.43;9.33;;;26.20;99.90;;;;;;5074447;28;20606;-63
2023/06/19 10:53:56;;;;;;;14.33;10.40;;;26.30;99.90;;;;;;5093520;28;20187;-63
2023/06/19 10:56:25;;;;;;;12.23;9.70;;;26.60;99.90;;;;;;5086382;28;20231;-63
2023/06/19 10:59:05;;;;;;;10.95;9.20;;;26.70;99.90;;;;;;5086248;28;20231;-63
2023/06/19 11:01:36;;;;;;;10.00;8.73;;;26.70;99.90;;;;;;5090452;28;20212;-63
2023/06/19 11:04:06;;;;;;;11.88;8.90;;;26.70;99.90;;;;;;5088075;28;20226;-63
2023/06/19 11:06:36;;;;;;;12.73;9.10;;;26.40;99.90;;;;;;5065995;28;20229;-63
2023/06/19 11:09:05;;;;;;;11.53;8.23;;;26.30;99.90;;;;;;5089513;28;20211;-62
2023/06/19 11:11:38;;;;;;;9.20;7.57;;;26.00;99.90;;;;;;5089088;28;20576;-63
2023/06/19 11:14:06;;;;;;;8.13;7.27;;;26.00;99.90;;;;;;5089553;28;20219;-62
2023/06/19 11:16:38;;;;;;;12.03;8.10;;;25.90;99.90;;;;;;5079416;28;20228;-63
2023/06/19 11:19:08;;;;;;;9.03;8.03;;;25.70;99.90;;;;;;5084738;28;20265;-63
2023/06/19 11:21:39;;;;;;;9.03;6.77;;;25.50;99.90;;;;;;5081085;28;20210;-62
2023/06/19 11:24:12;;;;;;;7.40;6.60;;;25.30;99.90;;;;;;5086292;28;20187;-63
2023/06/19 11:26:43;;;;;;;8.77;7.40;;;25.30;99.90;;;;;;5082162;28;20207;-63
2023/06/19 11:29:16;;;;;;;8.83;7.70;;;25.80;99.90;;;;;;5084597;28;20224;-63
2023/06/19 11:31:44;;;;;;;11.83;7.17;;;26.20;99.90;;;;;;5084915;28;20220;-63
2023/06/19 11:34:13;;;;;;;8.47;7.43;;;26.30;99.90;;;;;;5079120;28;20227;-63
2023/06/19 11:36:44;;;;;;;7.60;6.80;;;26.50;99.90;;;;;;5079342;28;20229;-63
2023/06/19 11:39:13;;;;;;;6.83;6.10;;;26.70;99.90;;;;;;5080245;28;20189;-62
2023/06/19 11:41:44;;;;;;;6.27;5.67;;;26.70;99.90;;;;;;5067401;28;20191;-62
2023/06/19 11:44:12;;;;;;;7.53;6.20;;;26.40;99.90;;;;;;5085836;28;20689;-63
2023/06/19 11:46:41;;;;;;;7.93;6.17;;;26.30;99.90;;;;;;5083809;28;20219;-63
2023/06/19 11:49:10;;;;;;;6.83;5.67;;;26.30;99.90;;;;;;5083103;28;20238;-62
2023/06/19 11:51:39;;;;;;;7.90;6.00;;;26.30;99.90;;;;;;5088382;28;20334;-62
2023/06/19 11:54:11;;;;;;;8.03;6.77;;;26.20;99.90;;;;;;5082676;28;20676;-63
2023/06/19 11:56:40;;;;;;;8.63;6.37;;;26.20;99.90;;;;;;5082775;28;20219;-63
2023/06/19 11:59:08;;;;;;;8.37;6.43;;;26.40;99.90;;;;;;5080538;28;20219;-63
2023/06/19 12:01:38;;;;;;;6.97;6.23;;;26.20;99.90;;;;;;5085673;28;20223;-63
2023/06/19 12:04:07;;;;;;;11.10;7.13;;;26.00;99.90;;;;;;5088305;28;20220;-62
2023/06/19 12:06:37;;;;;;;6.53;4.90;;;26.10;99.90;;;;;;5089279;28;20223;-62
2023/06/19 12:09:05;;;;;;;9.80;6.33;;;26.30;99.90;;;;;;5083921;28;20184;-62
2023/06/19 12:11:35;;;;;;;6.63;5.57;;;26.60;99.90;;;;;;5081612;28;20211;-64
2023/06/19 12:14:04;;;;;;;8.53;6.37;;;26.70;99.90;;;;;;5085926;28;20215;-62
2023/06/19 12:16:32;;;;;;;7.57;5.87;;;26.70;99.90;;;;;;5084762;28;20227;-63
2023/06/19 12:19:01;;;;;;;7.20;6.50;;;26.90;99.90;;;;;;5076561;28;20227;-62
2023/06/19 12:21:29;;;;;;;7.30;6.10;;;26.80;99.90;;;;;;5085153;28;20223;-61
2023/06/19 12:24:07;;;;;;;8.83;6.47;;;26.70;99.90;;;;;;5088050;28;20275;-62
2023/06/19 12:26:37;;;;;;;8.37;6.30;;;26.90;99.90;;;;;;5083895;28;20234;-62
2023/06/19 12:29:06;;;;;;;8.67;6.87;;;26.90;99.90;;;;;;5081452;28;20223;-63
2023/06/19 12:31:38;;;;;;;8.40;6.17;;;27.00;99.90;;;;;;5086404;28;20215;-62
2023/06/19 12:34:06;;;;;;;8.47;6.37;;;27.10;99.90;;;;;;5087763;28;20265;-62
2023/06/19 12:36:56;;;;;;;7.07;6.30;;;27.10;99.90;;;;;;5085777;28;20216;-62
2023/06/19 12:39:26;;;;;;;9.43;6.53;;;27.10;99.90;;;;;;5085115;28;20188;-62
2023/06/19 12:41:56;;;;;;;12.83;6.00;;;27.20;99.90;;;;;;5095879;28;20702;-62
2023/06/19 12:44:24;;;;;;;9.50;6.33;;;27.30;99.90;;;;;;5089946;28;21045;-62
2023/06/19 12:46:53;;;;;;;9.77;5.93;;;27.40;99.90;;;;;;5092665;28;20227;-63
2023/06/19 12:49:21;;;;;;;9.37;5.43;;;27.60;99.90;;;;;;5088237;28;20219;-63